sensor_id;sensor_type;location;lat;lon;timestamp;P1;durP1;ratioP1;P2;durP2;ratioP2
80136;SDS011;69466;55.948;37.484;2023-08-12T00:02:14;20.80;;;15.48;;
80136;SDS011;69466;55.948;37.484;2023-08-12T00:04:40;20.35;;;15.60;;
80136;SDS011;69466;55.948;37.484;2023-08-12T00:07:05;19.33;;;15.07;;
80136;SDS011;69466;55.948;37.484;2023-08-12T00:09:31;21.08;;;16.63;;
80136;SDS011;69466;55.948;37.484;2023-08-12T00:11:58;20.23;;;16.67;;
80136;SDS011;69466;55.948;37.484;2023-08-12T00:14:24;21.98;;;17.90;;
80136;SDS011;69466;55.948;37.484;2023-08-12T00:16:50;20.70;;;16.92;;
80136;SDS011;69466;55.948;37.484;2023-08-12T00:19:16;19.92;;;15.85;;
80136;SDS011;69466;55.948;37.484;2023-08-12T00:21:41;20.05;;;16.23;;
80136;SDS011;69466;55.948;37.484;2023-08-12T00:24:07;19.83;;;15.50;;
80136;SDS011;69466;55.948;37.484;2023-08-12T00:26:33;21.40;;;14.15;;
80136;SDS011;69466;55.948;37.484;2023-08-12T00:28:59;18.90;;;14.60;;
80136;SDS011;69466;55.948;37.484;2023-08-12T00:31:25;16.90;;;13.15;;
80136;SDS011;69466;55.948;37.484;2023-08-12T00:33:51;19.13;;;14.63;;
80136;SDS011;69466;55.948;37.484;2023-08-12T00:36:16;19.70;;;14.32;;
80136;SDS011;69466;55.948;37.484;2023-08-12T00:38:42;23.02;;;14.68;;
80136;SDS011;69466;55.948;37.484;2023-08-12T00:41:08;18.83;;;13.95;;
80136;SDS011;69466;55.948;37.484;2023-08-12T00:43:34;22.80;;;16.45;;
80136;SDS011;69466;55.948;37.484;2023-08-12T00:46:01;16.38;;;12.32;;
80136;SDS011;69466;55.948;37.484;2023-08-12T00:48:27;17.73;;;13.02;;
80136;SDS011;69466;55.948;37.484;2023-08-12T00:50:52;20.40;;;13.05;;
80136;SDS011;69466;55.948;37.484;2023-08-12T00:53:18;16.10;;;12.50;;
80136;SDS011;69466;55.948;37.484;2023-08-12T00:55:46;19.05;;;13.43;;
80136;SDS011;69466;55.948;37.484;2023-08-12T00:58:12;18.58;;;13.20;;
80136;SDS011;69466;55.948;37.484;2023-08-12T01:03:26;16.65;;;12.27;;
80136;SDS011;69466;55.948;37.484;2023-08-12T01:05:52;15.15;;;12.95;;
80136;SDS011;69466;55.948;37.484;2023-08-12T01:08:18;16.15;;;12.65;;
80136;SDS011;69466;55.948;37.484;2023-08-12T01:10:45;21.33;;;13.15;;
80136;SDS011;69466;55.948;37.484;2023-08-12T01:16:10;16.13;;;11.88;;
80136;SDS011;69466;55.948;37.484;2023-08-12T01:18:39;17.58;;;11.93;;
80136;SDS011;69466;55.948;37.484;2023-08-12T01:21:07;17.58;;;12.23;;
80136;SDS011;69466;55.948;37.484;2023-08-12T01:23:38;15.32;;;12.00;;
80136;SDS011;69466;55.948;37.484;2023-08-12T01:26:04;15.50;;;11.98;;
80136;SDS011;69466;55.948;37.484;2023-08-12T01:28:30;16.05;;;12.02;;
80136;SDS011;69466;55.948;37.484;2023-08-12T01:30:57;18.98;;;11.60;;
80136;SDS011;69466;55.948;37.484;2023-08-12T01:33:47;18.00;;;11.20;;
80136;SDS011;69466;55.948;37.484;2023-08-12T01:36:19;13.88;;;11.30;;
80136;SDS011;69466;55.948;37.484;2023-08-12T01:38:48;14.15;;;11.13;;
80136;SDS011;69466;55.948;37.484;2023-08-12T01:41:16;14.65;;;11.18;;
80136;SDS011;69466;55.948;37.484;2023-08-12T01:43:44;14.73;;;11.88;;
80136;SDS011;69466;55.948;37.484;2023-08-12T01:46:12;15.85;;;11.45;;
80136;SDS011;69466;55.948;37.484;2023-08-12T01:48:38;18.48;;;13.00;;
80136;SDS011;69466;55.948;37.484;2023-08-12T01:51:04;17.08;;;12.73;;
80136;SDS011;69466;55.948;37.484;2023-08-12T01:53:30;16.83;;;11.80;;
80136;SDS011;69466;55.948;37.484;2023-08-12T01:55:56;18.33;;;12.35;;
80136;SDS011;69466;55.948;37.484;2023-08-12T01:58:22;13.70;;;11.40;;
80136;SDS011;69466;55.948;37.484;2023-08-12T02:00:47;15.52;;;11.65;;
80136;SDS011;69466;55.948;37.484;2023-08-12T02:03:13;12.57;;;9.98;;
80136;SDS011;69466;55.948;37.484;2023-08-12T02:05:39;13.73;;;11.40;;
80136;SDS011;69466;55.948;37.484;2023-08-12T02:08:06;16.58;;;12.02;;
80136;SDS011;69466;55.948;37.484;2023-08-12T02:10:34;16.95;;;11.05;;
80136;SDS011;69466;55.948;37.484;2023-08-12T02:13:01;16.98;;;11.93;;
80136;SDS011;69466;55.948;37.484;2023-08-12T02:15:29;15.48;;;12.30;;
80136;SDS011;69466;55.948;37.484;2023-08-12T02:17:55;15.02;;;11.70;;
80136;SDS011;69466;55.948;37.484;2023-08-12T02:20:21;15.65;;;12.77;;
80136;SDS011;69466;55.948;37.484;2023-08-12T02:22:47;14.80;;;11.75;;
80136;SDS011;69466;55.948;37.484;2023-08-12T02:25:13;13.50;;;10.82;;
80136;SDS011;69466;55.948;37.484;2023-08-12T02:27:39;17.55;;;13.02;;
80136;SDS011;69466;55.948;37.484;2023-08-12T02:30:05;17.38;;;12.40;;
80136;SDS011;69466;55.948;37.484;2023-08-12T02:32:32;16.58;;;12.23;;
80136;SDS011;69466;55.948;37.484;2023-08-12T02:34:58;15.40;;;12.93;;
80136;SDS011;69466;55.948;37.484;2023-08-12T02:37:24;18.52;;;13.32;;
80136;SDS011;69466;55.948;37.484;2023-08-12T02:39:50;17.98;;;13.63;;
80136;SDS011;69466;55.948;37.484;2023-08-12T02:42:15;17.75;;;13.70;;
80136;SDS011;69466;55.948;37.484;2023-08-12T02:44:41;17.80;;;13.82;;
80136;SDS011;69466;55.948;37.484;2023-08-12T02:47:07;19.02;;;14.80;;
80136;SDS011;69466;55.948;37.484;2023-08-12T02:49:33;23.13;;;15.77;;
80136;SDS011;69466;55.948;37.484;2023-08-12T02:51:59;20.67;;;14.32;;
80136;SDS011;69466;55.948;37.484;2023-08-12T02:54:24;18.30;;;13.65;;
80136;SDS011;69466;55.948;37.484;2023-08-12T02:56:50;17.83;;;13.20;;
80136;SDS011;69466;55.948;37.484;2023-08-12T02:59:16;18.75;;;13.75;;
80136;SDS011;69466;55.948;37.484;2023-08-12T03:01:42;17.05;;;13.18;;
80136;SDS011;69466;55.948;37.484;2023-08-12T03:04:08;17.20;;;12.82;;
80136;SDS011;69466;55.948;37.484;2023-08-12T03:06:34;17.33;;;12.68;;
80136;SDS011;69466;55.948;37.484;2023-08-12T03:09:00;20.10;;;13.98;;
80136;SDS011;69466;55.948;37.484;2023-08-12T03:11:26;17.00;;;13.60;;
80136;SDS011;69466;55.948;37.484;2023-08-12T03:13:54;18.55;;;12.60;;
80136;SDS011;69466;55.948;37.484;2023-08-12T03:16:22;18.40;;;12.93;;
80136;SDS011;69466;55.948;37.484;2023-08-12T03:18:48;21.70;;;13.07;;
80136;SDS011;69466;55.948;37.484;2023-08-12T03:21:14;18.75;;;12.60;;
80136;SDS011;69466;55.948;37.484;2023-08-12T03:23:40;18.05;;;11.95;;
80136;SDS011;69466;55.948;37.484;2023-08-12T03:26:09;20.77;;;12.10;;
80136;SDS011;69466;55.948;37.484;2023-08-12T03:28:35;14.60;;;11.48;;
80136;SDS011;69466;55.948;37.484;2023-08-12T03:31:01;16.27;;;12.27;;
80136;SDS011;69466;55.948;37.484;2023-08-12T03:33:27;16.23;;;11.32;;
80136;SDS011;69466;55.948;37.484;2023-08-12T03:35:54;15.52;;;10.73;;
80136;SDS011;69466;55.948;37.484;2023-08-12T03:38:20;15.60;;;11.48;;
80136;SDS011;69466;55.948;37.484;2023-08-12T03:40:46;15.15;;;11.45;;
80136;SDS011;69466;55.948;37.484;2023-08-12T03:43:14;18.80;;;12.50;;
80136;SDS011;69466;55.948;37.484;2023-08-12T03:45:42;16.83;;;11.18;;
80136;SDS011;69466;55.948;37.484;2023-08-12T03:48:10;17.30;;;11.15;;
80136;SDS011;69466;55.948;37.484;2023-08-12T03:50:39;18.88;;;11.63;;
80136;SDS011;69466;55.948;37.484;2023-08-12T03:53:05;12.88;;;10.48;;
80136;SDS011;69466;55.948;37.484;2023-08-12T03:55:34;17.50;;;12.55;;
80136;SDS011;69466;55.948;37.484;2023-08-12T03:58:01;14.55;;;11.05;;
80136;SDS011;69466;55.948;37.484;2023-08-12T04:00:28;16.55;;;12.02;;
80136;SDS011;69466;55.948;37.484;2023-08-12T04:02:58;15.68;;;11.93;;
80136;SDS011;69466;55.948;37.484;2023-08-12T04:05:24;16.50;;;11.57;;
80136;SDS011;69466;55.948;37.484;2023-08-12T04:07:50;15.50;;;11.70;;
80136;SDS011;69466;55.948;37.484;2023-08-12T04:10:16;18.08;;;11.85;;
80136;SDS011;69466;55.948;37.484;2023-08-12T04:12:42;17.60;;;12.23;;
80136;SDS011;69466;55.948;37.484;2023-08-12T04:15:09;17.80;;;11.70;;
80136;SDS011;69466;55.948;37.484;2023-08-12T04:17:35;13.45;;;10.55;;
80136;SDS011;69466;55.948;37.484;2023-08-12T04:20:03;13.52;;;10.32;;
80136;SDS011;69466;55.948;37.484;2023-08-12T04:22:35;17.13;;;12.25;;
80136;SDS011;69466;55.948;37.484;2023-08-12T04:25:01;14.57;;;11.15;;
80136;SDS011;69466;55.948;37.484;2023-08-12T04:27:29;15.32;;;10.95;;
80136;SDS011;69466;55.948;37.484;2023-08-12T04:29:56;15.10;;;11.32;;
80136;SDS011;69466;55.948;37.484;2023-08-12T04:32:22;14.40;;;11.45;;
80136;SDS011;69466;55.948;37.484;2023-08-12T04:34:48;16.55;;;10.90;;
80136;SDS011;69466;55.948;37.484;2023-08-12T04:37:14;15.07;;;11.07;;
80136;SDS011;69466;55.948;37.484;2023-08-12T04:39:42;17.42;;;11.38;;
80136;SDS011;69466;55.948;37.484;2023-08-12T04:42:09;16.67;;;10.57;;
80136;SDS011;69466;55.948;37.484;2023-08-12T04:44:36;13.25;;;9.98;;
80136;SDS011;69466;55.948;37.484;2023-08-12T04:47:01;13.23;;;10.48;;
80136;SDS011;69466;55.948;37.484;2023-08-12T04:49:30;15.68;;;10.98;;
80136;SDS011;69466;55.948;37.484;2023-08-12T04:51:56;15.25;;;10.90;;
80136;SDS011;69466;55.948;37.484;2023-08-12T04:54:22;14.25;;;10.90;;
80136;SDS011;69466;55.948;37.484;2023-08-12T04:56:48;14.07;;;10.32;;
80136;SDS011;69466;55.948;37.484;2023-08-12T04:59:14;14.68;;;10.13;;
80136;SDS011;69466;55.948;37.484;2023-08-12T05:01:41;14.05;;;10.45;;
80136;SDS011;69466;55.948;37.484;2023-08-12T05:04:06;13.32;;;11.00;;
80136;SDS011;69466;55.948;37.484;2023-08-12T05:06:32;14.73;;;10.40;;
80136;SDS011;69466;55.948;37.484;2023-08-12T05:08:58;13.07;;;9.63;;
80136;SDS011;69466;55.948;37.484;2023-08-12T05:11:24;15.10;;;10.32;;
80136;SDS011;69466;55.948;37.484;2023-08-12T05:13:50;14.60;;;10.35;;
80136;SDS011;69466;55.948;37.484;2023-08-12T05:16:16;15.13;;;10.88;;
80136;SDS011;69466;55.948;37.484;2023-08-12T05:18:43;14.52;;;10.60;;
80136;SDS011;69466;55.948;37.484;2023-08-12T05:21:09;12.68;;;10.27;;
80136;SDS011;69466;55.948;37.484;2023-08-12T05:23:34;13.93;;;10.40;;
80136;SDS011;69466;55.948;37.484;2023-08-12T05:26:00;15.10;;;10.43;;
80136;SDS011;69466;55.948;37.484;2023-08-12T05:28:26;16.30;;;10.23;;
80136;SDS011;69466;55.948;37.484;2023-08-12T05:30:52;12.63;;;10.60;;
80136;SDS011;69466;55.948;37.484;2023-08-12T05:33:20;13.55;;;9.75;;
80136;SDS011;69466;55.948;37.484;2023-08-12T05:35:48;19.33;;;10.07;;
80136;SDS011;69466;55.948;37.484;2023-08-12T05:38:15;14.18;;;10.13;;
80136;SDS011;69466;55.948;37.484;2023-08-12T05:40:41;16.83;;;9.95;;
80136;SDS011;69466;55.948;37.484;2023-08-12T05:43:07;12.90;;;10.43;;
80136;SDS011;69466;55.948;37.484;2023-08-12T05:45:33;13.32;;;9.55;;
80136;SDS011;69466;55.948;37.484;2023-08-12T05:47:59;12.82;;;10.57;;
80136;SDS011;69466;55.948;37.484;2023-08-12T05:50:25;12.82;;;10.40;;
80136;SDS011;69466;55.948;37.484;2023-08-12T05:52:51;13.70;;;10.10;;
80136;SDS011;69466;55.948;37.484;2023-08-12T05:55:17;12.88;;;10.50;;
80136;SDS011;69466;55.948;37.484;2023-08-12T05:57:44;14.70;;;10.98;;
80136;SDS011;69466;55.948;37.484;2023-08-12T06:00:10;14.68;;;10.27;;
80136;SDS011;69466;55.948;37.484;2023-08-12T06:02:39;14.27;;;10.85;;
80136;SDS011;69466;55.948;37.484;2023-08-12T06:05:05;12.68;;;9.75;;
80136;SDS011;69466;55.948;37.484;2023-08-12T06:07:31;14.38;;;11.27;;
80136;SDS011;69466;55.948;37.484;2023-08-12T06:09:57;11.98;;;9.50;;
80136;SDS011;69466;55.948;37.484;2023-08-12T06:12:23;15.98;;;9.95;;
80136;SDS011;69466;55.948;37.484;2023-08-12T06:14:49;13.00;;;9.52;;
80136;SDS011;69466;55.948;37.484;2023-08-12T06:17:14;11.02;;;8.82;;
80136;SDS011;69466;55.948;37.484;2023-08-12T06:19:40;12.13;;;8.90;;
80136;SDS011;69466;55.948;37.484;2023-08-12T06:22:06;12.57;;;9.18;;
80136;SDS011;69466;55.948;37.484;2023-08-12T06:24:32;10.75;;;8.30;;
80136;SDS011;69466;55.948;37.484;2023-08-12T06:26:57;12.38;;;8.23;;
80136;SDS011;69466;55.948;37.484;2023-08-12T06:29:23;11.18;;;8.40;;
80136;SDS011;69466;55.948;37.484;2023-08-12T06:31:49;11.57;;;8.68;;
80136;SDS011;69466;55.948;37.484;2023-08-12T06:34:15;13.77;;;9.20;;
80136;SDS011;69466;55.948;37.484;2023-08-12T06:36:41;17.45;;;9.32;;
80136;SDS011;69466;55.948;37.484;2023-08-12T06:39:06;11.25;;;7.82;;
80136;SDS011;69466;55.948;37.484;2023-08-12T06:41:32;12.10;;;9.00;;
80136;SDS011;69466;55.948;37.484;2023-08-12T06:43:59;11.90;;;7.95;;
80136;SDS011;69466;55.948;37.484;2023-08-12T06:46:26;12.32;;;7.65;;
80136;SDS011;69466;55.948;37.484;2023-08-12T06:48:52;10.10;;;8.23;;
80136;SDS011;69466;55.948;37.484;2023-08-12T06:51:18;12.75;;;9.30;;
80136;SDS011;69466;55.948;37.484;2023-08-12T06:53:43;10.77;;;7.55;;
80136;SDS011;69466;55.948;37.484;2023-08-12T06:56:09;10.73;;;7.80;;
80136;SDS011;69466;55.948;37.484;2023-08-12T06:58:35;9.75;;;7.85;;
80136;SDS011;69466;55.948;37.484;2023-08-12T07:01:01;12.48;;;8.38;;
80136;SDS011;69466;55.948;37.484;2023-08-12T07:03:27;10.80;;;7.55;;
80136;SDS011;69466;55.948;37.484;2023-08-12T07:05:53;10.40;;;8.40;;
80136;SDS011;69466;55.948;37.484;2023-08-12T07:08:20;13.57;;;8.60;;
80136;SDS011;69466;55.948;37.484;2023-08-12T07:10:45;11.80;;;7.72;;
80136;SDS011;69466;55.948;37.484;2023-08-12T07:13:11;11.40;;;8.50;;
80136;SDS011;69466;55.948;37.484;2023-08-12T07:15:37;12.07;;;7.70;;
80136;SDS011;69466;55.948;37.484;2023-08-12T07:18:03;11.73;;;8.00;;
80136;SDS011;69466;55.948;37.484;2023-08-12T07:20:29;11.18;;;7.82;;
80136;SDS011;69466;55.948;37.484;2023-08-12T07:22:55;9.20;;;6.88;;
80136;SDS011;69466;55.948;37.484;2023-08-12T07:25:21;12.05;;;7.88;;
80136;SDS011;69466;55.948;37.484;2023-08-12T07:27:47;11.38;;;6.97;;
80136;SDS011;69466;55.948;37.484;2023-08-12T07:30:13;9.95;;;7.03;;
80136;SDS011;69466;55.948;37.484;2023-08-12T07:32:39;9.60;;;7.38;;
80136;SDS011;69466;55.948;37.484;2023-08-12T07:35:05;12.23;;;7.43;;
80136;SDS011;69466;55.948;37.484;2023-08-12T07:37:31;11.88;;;8.90;;
80136;SDS011;69466;55.948;37.484;2023-08-12T07:39:57;13.50;;;8.82;;
80136;SDS011;69466;55.948;37.484;2023-08-12T07:42:23;12.20;;;8.02;;
80136;SDS011;69466;55.948;37.484;2023-08-12T07:44:50;12.80;;;8.13;;
80136;SDS011;69466;55.948;37.484;2023-08-12T07:47:16;12.75;;;8.00;;
80136;SDS011;69466;55.948;37.484;2023-08-12T07:49:42;12.25;;;7.57;;
80136;SDS011;69466;55.948;37.484;2023-08-12T07:52:09;11.13;;;7.60;;
80136;SDS011;69466;55.948;37.484;2023-08-12T07:54:35;11.48;;;7.85;;
80136;SDS011;69466;55.948;37.484;2023-08-12T07:57:01;11.52;;;8.32;;
80136;SDS011;69466;55.948;37.484;2023-08-12T07:59:27;10.48;;;8.15;;
80136;SDS011;69466;55.948;37.484;2023-08-12T08:01:53;10.73;;;8.50;;
80136;SDS011;69466;55.948;37.484;2023-08-12T08:04:18;13.35;;;8.82;;
80136;SDS011;69466;55.948;37.484;2023-08-12T08:06:44;16.95;;;8.55;;
80136;SDS011;69466;55.948;37.484;2023-08-12T08:09:10;9.73;;;8.25;;
80136;SDS011;69466;55.948;37.484;2023-08-12T08:11:37;12.07;;;8.40;;
80136;SDS011;69466;55.948;37.484;2023-08-12T08:14:03;11.50;;;8.68;;
80136;SDS011;69466;55.948;37.484;2023-08-12T08:16:29;12.00;;;8.73;;
80136;SDS011;69466;55.948;37.484;2023-08-12T08:18:55;10.55;;;7.70;;
80136;SDS011;69466;55.948;37.484;2023-08-12T08:21:21;11.60;;;8.73;;
80136;SDS011;69466;55.948;37.484;2023-08-12T08:23:47;11.93;;;8.80;;
80136;SDS011;69466;55.948;37.484;2023-08-12T08:26:13;14.63;;;8.38;;
80136;SDS011;69466;55.948;37.484;2023-08-12T08:28:41;12.63;;;9.40;;
80136;SDS011;69466;55.948;37.484;2023-08-12T08:31:08;10.98;;;8.65;;
80136;SDS011;69466;55.948;37.484;2023-08-12T08:33:35;12.55;;;9.25;;
80136;SDS011;69466;55.948;37.484;2023-08-12T08:36:01;14.48;;;10.55;;
80136;SDS011;69466;55.948;37.484;2023-08-12T08:38:27;14.98;;;9.57;;
80136;SDS011;69466;55.948;37.484;2023-08-12T08:40:53;13.10;;;9.48;;
80136;SDS011;69466;55.948;37.484;2023-08-12T08:43:20;13.82;;;9.38;;
80136;SDS011;69466;55.948;37.484;2023-08-12T08:45:52;13.18;;;9.65;;
80136;SDS011;69466;55.948;37.484;2023-08-12T08:48:20;14.20;;;9.40;;
80136;SDS011;69466;55.948;37.484;2023-08-12T08:50:47;14.90;;;10.15;;
80136;SDS011;69466;55.948;37.484;2023-08-12T08:53:14;13.95;;;9.50;;
80136;SDS011;69466;55.948;37.484;2023-08-12T08:55:41;12.98;;;9.48;;
80136;SDS011;69466;55.948;37.484;2023-08-12T08:58:07;12.52;;;9.48;;
80136;SDS011;69466;55.948;37.484;2023-08-12T09:00:33;12.70;;;9.85;;
80136;SDS011;69466;55.948;37.484;2023-08-12T09:03:01;14.80;;;10.30;;
80136;SDS011;69466;55.948;37.484;2023-08-12T09:05:29;12.30;;;10.38;;
80136;SDS011;69466;55.948;37.484;2023-08-12T09:07:56;13.63;;;10.00;;
80136;SDS011;69466;55.948;37.484;2023-08-12T09:10:24;14.13;;;10.93;;
80136;SDS011;69466;55.948;37.484;2023-08-12T09:12:52;15.20;;;10.25;;
80136;SDS011;69466;55.948;37.484;2023-08-12T09:15:20;15.00;;;10.45;;
80136;SDS011;69466;55.948;37.484;2023-08-12T09:17:46;15.45;;;10.85;;
80136;SDS011;69466;55.948;37.484;2023-08-12T09:20:12;16.33;;;10.05;;
80136;SDS011;69466;55.948;37.484;2023-08-12T09:22:39;14.27;;;10.18;;
80136;SDS011;69466;55.948;37.484;2023-08-12T09:25:05;13.50;;;10.10;;
80136;SDS011;69466;55.948;37.484;2023-08-12T09:27:32;14.48;;;11.10;;
80136;SDS011;69466;55.948;37.484;2023-08-12T09:29:58;15.10;;;9.75;;
80136;SDS011;69466;55.948;37.484;2023-08-12T09:32:30;15.95;;;10.50;;
80136;SDS011;69466;55.948;37.484;2023-08-12T09:34:56;14.90;;;10.35;;
80136;SDS011;69466;55.948;37.484;2023-08-12T09:37:23;14.35;;;9.95;;
80136;SDS011;69466;55.948;37.484;2023-08-12T09:39:52;18.42;;;10.20;;
80136;SDS011;69466;55.948;37.484;2023-08-12T09:42:18;14.25;;;11.15;;
80136;SDS011;69466;55.948;37.484;2023-08-12T09:44:44;16.05;;;10.45;;
80136;SDS011;69466;55.948;37.484;2023-08-12T09:47:11;14.07;;;9.60;;
80136;SDS011;69466;55.948;37.484;2023-08-12T09:49:40;12.13;;;9.93;;
80136;SDS011;69466;55.948;37.484;2023-08-12T09:52:07;14.18;;;9.90;;
80136;SDS011;69466;55.948;37.484;2023-08-12T09:54:33;14.00;;;9.95;;
80136;SDS011;69466;55.948;37.484;2023-08-12T09:57:01;13.02;;;9.65;;
80136;SDS011;69466;55.948;37.484;2023-08-12T09:59:32;15.18;;;10.68;;
80136;SDS011;69466;55.948;37.484;2023-08-12T10:01:59;12.00;;;9.23;;
80136;SDS011;69466;55.948;37.484;2023-08-12T10:04:32;13.23;;;9.73;;
80136;SDS011;69466;55.948;37.484;2023-08-12T10:07:03;13.45;;;9.23;;
80136;SDS011;69466;55.948;37.484;2023-08-12T10:09:31;15.93;;;10.15;;
80136;SDS011;69466;55.948;37.484;2023-08-12T10:11:59;16.67;;;10.55;;
80136;SDS011;69466;55.948;37.484;2023-08-12T10:14:26;13.85;;;9.88;;
80136;SDS011;69466;55.948;37.484;2023-08-12T10:16:53;14.43;;;11.00;;
80136;SDS011;69466;55.948;37.484;2023-08-12T10:19:20;14.80;;;10.38;;
80136;SDS011;69466;55.948;37.484;2023-08-12T10:21:48;13.50;;;10.25;;
80136;SDS011;69466;55.948;37.484;2023-08-12T10:24:16;15.23;;;11.07;;
80136;SDS011;69466;55.948;37.484;2023-08-12T10:26:43;15.13;;;11.10;;
80136;SDS011;69466;55.948;37.484;2023-08-12T10:29:10;17.60;;;11.30;;
80136;SDS011;69466;55.948;37.484;2023-08-12T10:31:38;15.70;;;11.10;;
80136;SDS011;69466;55.948;37.484;2023-08-12T10:34:05;19.02;;;11.13;;
80136;SDS011;69466;55.948;37.484;2023-08-12T10:36:31;19.08;;;13.40;;
80136;SDS011;69466;55.948;37.484;2023-08-12T10:38:57;14.38;;;10.90;;
80136;SDS011;69466;55.948;37.484;2023-08-12T10:41:23;15.25;;;11.63;;
80136;SDS011;69466;55.948;37.484;2023-08-12T10:46:29;18.08;;;11.52;;
80136;SDS011;69466;55.948;37.484;2023-08-12T10:51:40;23.13;;;13.20;;
80136;SDS011;69466;55.948;37.484;2023-08-12T10:54:21;17.70;;;11.45;;
80136;SDS011;69466;55.948;37.484;2023-08-12T11:02:20;18.10;;;12.57;;
80136;SDS011;69466;55.948;37.484;2023-08-12T11:04:59;18.88;;;13.93;;
80136;SDS011;69466;55.948;37.484;2023-08-12T11:10:16;15.73;;;13.30;;
80136;SDS011;69466;55.948;37.484;2023-08-12T11:12:55;15.95;;;12.32;;
80136;SDS011;69466;55.948;37.484;2023-08-12T11:17:54;19.50;;;12.85;;
80136;SDS011;69466;55.948;37.484;2023-08-12T11:20:21;14.75;;;12.68;;
80136;SDS011;69466;55.948;37.484;2023-08-12T11:22:47;19.35;;;14.02;;
80136;SDS011;69466;55.948;37.484;2023-08-12T11:25:13;18.63;;;13.05;;
80136;SDS011;69466;55.948;37.484;2023-08-12T11:27:44;18.92;;;13.30;;
80136;SDS011;69466;55.948;37.484;2023-08-12T11:30:12;23.42;;;15.00;;
80136;SDS011;69466;55.948;37.484;2023-08-12T11:32:41;17.67;;;13.98;;
80136;SDS011;69466;55.948;37.484;2023-08-12T11:35:08;17.60;;;12.73;;
80136;SDS011;69466;55.948;37.484;2023-08-12T11:37:36;18.33;;;13.52;;
80136;SDS011;69466;55.948;37.484;2023-08-12T11:40:04;16.95;;;12.75;;
80136;SDS011;69466;55.948;37.484;2023-08-12T11:42:31;17.38;;;13.45;;
80136;SDS011;69466;55.948;37.484;2023-08-12T11:44:57;19.75;;;13.68;;
80136;SDS011;69466;55.948;37.484;2023-08-12T11:47:23;17.80;;;14.43;;
80136;SDS011;69466;55.948;37.484;2023-08-12T11:49:49;18.63;;;13.55;;
80136;SDS011;69466;55.948;37.484;2023-08-12T11:52:15;17.52;;;13.80;;
80136;SDS011;69466;55.948;37.484;2023-08-12T11:54:41;18.30;;;13.77;;
80136;SDS011;69466;55.948;37.484;2023-08-12T11:57:07;20.30;;;12.80;;
80136;SDS011;69466;55.948;37.484;2023-08-12T11:59:33;15.48;;;12.43;;
80136;SDS011;69466;55.948;37.484;2023-08-12T12:02:01;15.23;;;11.20;;
80136;SDS011;69466;55.948;37.484;2023-08-12T12:04:28;20.00;;;14.38;;
80136;SDS011;69466;55.948;37.484;2023-08-12T12:06:56;23.73;;;18.55;;
80136;SDS011;69466;55.948;37.484;2023-08-12T12:09:22;16.63;;;12.15;;
80136;SDS011;69466;55.948;37.484;2023-08-12T12:11:52;18.23;;;13.43;;
80136;SDS011;69466;55.948;37.484;2023-08-12T12:14:20;16.88;;;12.05;;
80136;SDS011;69466;55.948;37.484;2023-08-12T12:16:47;16.48;;;12.02;;
80136;SDS011;69466;55.948;37.484;2023-08-12T12:21:48;15.27;;;11.80;;
80136;SDS011;69466;55.948;37.484;2023-08-12T12:24:16;18.98;;;12.25;;
80136;SDS011;69466;55.948;37.484;2023-08-12T12:26:43;14.23;;;11.02;;
80136;SDS011;69466;55.948;37.484;2023-08-12T12:29:10;13.88;;;10.35;;
80136;SDS011;69466;55.948;37.484;2023-08-12T12:31:40;15.40;;;11.57;;
80136;SDS011;69466;55.948;37.484;2023-08-12T12:34:07;19.98;;;12.55;;
80136;SDS011;69466;55.948;37.484;2023-08-12T12:36:35;15.00;;;12.30;;
80136;SDS011;69466;55.948;37.484;2023-08-12T12:39:03;20.80;;;13.38;;
80136;SDS011;69466;55.948;37.484;2023-08-12T12:41:30;14.98;;;11.23;;
80136;SDS011;69466;55.948;37.484;2023-08-12T12:43:56;21.35;;;12.60;;
80136;SDS011;69466;55.948;37.484;2023-08-12T12:46:22;17.10;;;12.43;;
80136;SDS011;69466;55.948;37.484;2023-08-12T12:48:48;17.95;;;13.23;;
80136;SDS011;69466;55.948;37.484;2023-08-12T12:51:14;19.27;;;14.98;;
80136;SDS011;69466;55.948;37.484;2023-08-12T12:53:40;21.40;;;14.38;;
80136;SDS011;69466;55.948;37.484;2023-08-12T12:56:06;19.40;;;12.80;;
80136;SDS011;69466;55.948;37.484;2023-08-12T12:58:32;22.05;;;13.23;;
80136;SDS011;69466;55.948;37.484;2023-08-12T13:01:00;16.80;;;12.90;;
80136;SDS011;69466;55.948;37.484;2023-08-12T13:03:26;18.38;;;12.20;;
80136;SDS011;69466;55.948;37.484;2023-08-12T13:05:52;17.02;;;11.10;;
80136;SDS011;69466;55.948;37.484;2023-08-12T13:08:18;16.13;;;11.95;;
80136;SDS011;69466;55.948;37.484;2023-08-12T13:10:45;15.43;;;10.90;;
80136;SDS011;69466;55.948;37.484;2023-08-12T13:13:12;12.73;;;10.07;;
80136;SDS011;69466;55.948;37.484;2023-08-12T13:15:40;16.20;;;11.27;;
80136;SDS011;69466;55.948;37.484;2023-08-12T13:18:07;16.05;;;11.77;;
80136;SDS011;69466;55.948;37.484;2023-08-12T13:20:34;15.57;;;10.38;;
80136;SDS011;69466;55.948;37.484;2023-08-12T13:23:00;20.30;;;10.95;;
80136;SDS011;69466;55.948;37.484;2023-08-12T13:25:27;14.82;;;10.82;;
80136;SDS011;69466;55.948;37.484;2023-08-12T13:27:55;17.15;;;12.75;;
80136;SDS011;69466;55.948;37.484;2023-08-12T13:30:21;15.73;;;11.05;;
80136;SDS011;69466;55.948;37.484;2023-08-12T13:32:47;15.65;;;11.10;;
80136;SDS011;69466;55.948;37.484;2023-08-12T13:35:13;15.35;;;10.30;;
80136;SDS011;69466;55.948;37.484;2023-08-12T13:37:39;15.27;;;11.35;;
80136;SDS011;69466;55.948;37.484;2023-08-12T13:40:05;14.90;;;10.60;;
80136;SDS011;69466;55.948;37.484;2023-08-12T13:42:31;15.30;;;10.45;;
80136;SDS011;69466;55.948;37.484;2023-08-12T13:44:57;15.73;;;9.95;;
80136;SDS011;69466;55.948;37.484;2023-08-12T13:47:23;12.75;;;8.93;;
80136;SDS011;69466;55.948;37.484;2023-08-12T13:49:49;13.75;;;8.68;;
80136;SDS011;69466;55.948;37.484;2023-08-12T13:52:15;12.20;;;8.35;;
80136;SDS011;69466;55.948;37.484;2023-08-12T13:54:40;13.32;;;10.48;;
80136;SDS011;69466;55.948;37.484;2023-08-12T13:57:06;13.23;;;8.30;;
80136;SDS011;69466;55.948;37.484;2023-08-12T13:59:32;13.25;;;8.90;;
80136;SDS011;69466;55.948;37.484;2023-08-12T14:01:58;13.55;;;9.52;;
80136;SDS011;69466;55.948;37.484;2023-08-12T14:04:24;11.95;;;9.45;;
80136;SDS011;69466;55.948;37.484;2023-08-12T14:06:49;12.52;;;8.48;;
80136;SDS011;69466;55.948;37.484;2023-08-12T14:09:16;14.43;;;9.93;;
80136;SDS011;69466;55.948;37.484;2023-08-12T14:11:43;13.48;;;10.45;;
80136;SDS011;69466;55.948;37.484;2023-08-12T14:14:09;13.60;;;10.27;;
80136;SDS011;69466;55.948;37.484;2023-08-12T14:16:35;15.13;;;9.65;;
80136;SDS011;69466;55.948;37.484;2023-08-12T14:19:01;16.95;;;12.15;;
80136;SDS011;69466;55.948;37.484;2023-08-12T14:21:27;15.88;;;10.45;;
80136;SDS011;69466;55.948;37.484;2023-08-12T14:23:52;17.08;;;11.88;;
80136;SDS011;69466;55.948;37.484;2023-08-12T14:26:18;15.35;;;11.45;;
80136;SDS011;69466;55.948;37.484;2023-08-12T14:28:44;18.13;;;12.48;;
80136;SDS011;69466;55.948;37.484;2023-08-12T14:31:10;17.05;;;12.52;;
80136;SDS011;69466;55.948;37.484;2023-08-12T14:33:36;19.60;;;12.82;;
80136;SDS011;69466;55.948;37.484;2023-08-12T14:36:02;13.68;;;10.57;;